sensor_id;sensor_type;location;lat;lon;timestamp;P1;durP1;ratioP1;P2;durP2;ratioP2
20287;SDS011;10303;51.960;8.372;2022-08-04T00:02:03;4.20;;;1.20;;
20287;SDS011;10303;51.960;8.372;2022-08-04T00:05:15;3.00;;;0.95;;
20287;SDS011;10303;51.960;8.372;2022-08-04T00:08:04;1.42;;;0.85;;
20287;SDS011;10303;51.960;8.372;2022-08-04T00:10:59;2.60;;;1.05;;
20287;SDS011;10303;51.960;8.372;2022-08-04T00:13:29;2.47;;;0.75;;
20287;SDS011;10303;51.960;8.372;2022-08-04T00:15:58;2.35;;;0.73;;
20287;SDS011;10303;51.960;8.372;2022-08-04T00:18:35;1.88;;;0.82;;
20287;SDS011;10303;51.960;8.372;2022-08-04T00:21:06;3.35;;;0.70;;
20287;SDS011;10303;51.960;8.372;2022-08-04T00:23:41;2.92;;;1.13;;
20287;SDS011;10303;51.960;8.372;2022-08-04T00:26:08;4.53;;;1.00;;
20287;SDS011;10303;51.960;8.372;2022-08-04T00:28:35;1.90;;;0.80;;
20287;SDS011;10303;51.960;8.372;2022-08-04T00:31:04;6.63;;;1.38;;
20287;SDS011;10303;51.960;8.372;2022-08-04T00:33:33;2.15;;;0.80;;
20287;SDS011;10303;51.960;8.372;2022-08-04T00:36:02;1.83;;;0.90;;
20287;SDS011;10303;51.960;8.372;2022-08-04T00:38:28;3.00;;;1.08;;
20287;SDS011;10303;51.960;8.372;2022-08-04T00:44:03;2.47;;;0.80;;
20287;SDS011;10303;51.960;8.372;2022-08-04T00:47:03;3.38;;;0.88;;
20287;SDS011;10303;51.960;8.372;2022-08-04T00:50:33;0.77;;;0.70;;
20287;SDS011;10303;51.960;8.372;2022-08-04T01:05:05;1.98;;;0.93;;
20287;SDS011;10303;51.960;8.372;2022-08-04T01:07:59;2.58;;;1.00;;
20287;SDS011;10303;51.960;8.372;2022-08-04T01:17:00;2.53;;;0.90;;
20287;SDS011;10303;51.960;8.372;2022-08-04T01:19:59;1.10;;;0.70;;
20287;SDS011;10303;51.960;8.372;2022-08-04T01:22:40;3.20;;;1.20;;
20287;SDS011;10303;51.960;8.372;2022-08-04T01:31:59;2.58;;;1.05;;
20287;SDS011;10303;51.960;8.372;2022-08-04T01:35:24;1.13;;;1.00;;
20287;SDS011;10303;51.960;8.372;2022-08-04T01:40:29;2.47;;;0.75;;
20287;SDS011;10303;51.960;8.372;2022-08-04T01:42:57;3.55;;;1.60;;
20287;SDS011;10303;51.960;8.372;2022-08-04T01:45:27;4.32;;;0.77;;
20287;SDS011;10303;51.960;8.372;2022-08-04T01:47:55;2.42;;;1.00;;
20287;SDS011;10303;51.960;8.372;2022-08-04T01:50:22;4.72;;;1.60;;
20287;SDS011;10303;51.960;8.372;2022-08-04T01:52:53;2.65;;;1.00;;
20287;SDS011;10303;51.960;8.372;2022-08-04T01:55:19;5.85;;;0.80;;
20287;SDS011;10303;51.960;8.372;2022-08-04T01:57:47;2.38;;;1.10;;
20287;SDS011;10303;51.960;8.372;2022-08-04T02:00:18;0.70;;;0.70;;
20287;SDS011;10303;51.960;8.372;2022-08-04T02:02:52;4.80;;;1.67;;
20287;SDS011;10303;51.960;8.372;2022-08-04T02:05:20;2.40;;;0.80;;
20287;SDS011;10303;51.960;8.372;2022-08-04T02:22:15;1.35;;;1.00;;
20287;SDS011;10303;51.960;8.372;2022-08-04T02:24:48;2.40;;;1.00;;
20287;SDS011;10303;51.960;8.372;2022-08-04T02:27:24;2.53;;;1.52;;
20287;SDS011;10303;51.960;8.372;2022-08-04T02:30:05;8.18;;;1.60;;
20287;SDS011;10303;51.960;8.372;2022-08-04T02:32:32;2.83;;;1.20;;
20287;SDS011;10303;51.960;8.372;2022-08-04T02:35:07;1.20;;;0.93;;
20287;SDS011;10303;51.960;8.372;2022-08-04T02:37:47;2.58;;;0.98;;
20287;SDS011;10303;51.960;8.372;2022-08-04T02:40:27;1.85;;;1.17;;
20287;SDS011;10303;51.960;8.372;2022-08-04T02:42:56;3.22;;;1.13;;
20287;SDS011;10303;51.960;8.372;2022-08-04T02:45:24;4.70;;;0.80;;
20287;SDS011;10303;51.960;8.372;2022-08-04T02:47:52;2.00;;;1.00;;
20287;SDS011;10303;51.960;8.372;2022-08-04T02:50:21;2.50;;;1.00;;
20287;SDS011;10303;51.960;8.372;2022-08-04T02:52:48;1.80;;;1.00;;
20287;SDS011;10303;51.960;8.372;2022-08-04T02:55:16;1.85;;;1.08;;
20287;SDS011;10303;51.960;8.372;2022-08-04T02:57:43;3.47;;;1.17;;
20287;SDS011;10303;51.960;8.372;2022-08-04T03:00:12;3.13;;;1.10;;
20287;SDS011;10303;51.960;8.372;2022-08-04T03:06:26;3.85;;;1.55;;
20287;SDS011;10303;51.960;8.372;2022-08-04T03:18:41;3.63;;;0.90;;
20287;SDS011;10303;51.960;8.372;2022-08-04T03:27:44;1.33;;;1.00;;
20287;SDS011;10303;51.960;8.372;2022-08-04T03:30:42;3.67;;;1.10;;
20287;SDS011;10303;51.960;8.372;2022-08-04T03:33:39;3.92;;;1.05;;
20287;SDS011;10303;51.960;8.372;2022-08-04T03:42:38;5.57;;;1.40;;
20287;SDS011;10303;51.960;8.372;2022-08-04T03:52:05;3.17;;;1.00;;
20287;SDS011;10303;51.960;8.372;2022-08-04T03:58:42;2.40;;;0.88;;
20287;SDS011;10303;51.960;8.372;2022-08-04T04:13:30;1.65;;;0.80;;
20287;SDS011;10303;51.960;8.372;2022-08-04T04:22:26;4.10;;;0.95;;
20287;SDS011;10303;51.960;8.372;2022-08-04T04:28:19;3.38;;;0.98;;
20287;SDS011;10303;51.960;8.372;2022-08-04T04:34:12;1.77;;;1.40;;
20287;SDS011;10303;51.960;8.372;2022-08-04T04:45:58;2.38;;;1.10;;
20287;SDS011;10303;51.960;8.372;2022-08-04T04:51:19;2.65;;;0.80;;
20287;SDS011;10303;51.960;8.372;2022-08-04T04:59:41;3.50;;;1.38;;
20287;SDS011;10303;51.960;8.372;2022-08-04T05:08:32;5.90;;;1.30;;
20287;SDS011;10303;51.960;8.372;2022-08-04T05:14:31;1.63;;;1.20;;
20287;SDS011;10303;51.960;8.372;2022-08-04T05:17:17;6.13;;;1.10;;
20287;SDS011;10303;51.960;8.372;2022-08-04T05:22:44;3.15;;;1.48;;
20287;SDS011;10303;51.960;8.372;2022-08-04T05:26:00;2.75;;;1.10;;
20287;SDS011;10303;51.960;8.372;2022-08-04T05:28:42;1.00;;;0.90;;
20287;SDS011;10303;51.960;8.372;2022-08-04T05:31:17;2.58;;;1.50;;
20287;SDS011;10303;51.960;8.372;2022-08-04T05:33:57;1.20;;;1.10;;
20287;SDS011;10303;51.960;8.372;2022-08-04T05:36:42;4.35;;;1.73;;
20287;SDS011;10303;51.960;8.372;2022-08-04T05:39:30;2.65;;;1.30;;
20287;SDS011;10303;51.960;8.372;2022-08-04T05:42:03;1.30;;;0.88;;
20287;SDS011;10303;51.960;8.372;2022-08-04T05:44:30;2.28;;;1.08;;
20287;SDS011;10303;51.960;8.372;2022-08-04T05:46:59;1.77;;;1.23;;
20287;SDS011;10303;51.960;8.372;2022-08-04T05:49:28;1.60;;;1.10;;
20287;SDS011;10303;51.960;8.372;2022-08-04T05:51:57;2.78;;;1.35;;
20287;SDS011;10303;51.960;8.372;2022-08-04T05:54:26;4.35;;;1.15;;
20287;SDS011;10303;51.960;8.372;2022-08-04T05:56:55;2.22;;;1.30;;
20287;SDS011;10303;51.960;8.372;2022-08-04T05:59:23;2.97;;;1.20;;
20287;SDS011;10303;51.960;8.372;2022-08-04T06:01:52;3.90;;;1.05;;
20287;SDS011;10303;51.960;8.372;2022-08-04T06:04:22;9.82;;;1.50;;
20287;SDS011;10303;51.960;8.372;2022-08-04T06:06:55;3.63;;;1.92;;
20287;SDS011;10303;51.960;8.372;2022-08-04T06:09:21;2.67;;;1.13;;
20287;SDS011;10303;51.960;8.372;2022-08-04T06:11:48;3.17;;;1.35;;
20287;SDS011;10303;51.960;8.372;2022-08-04T06:14:16;3.80;;;1.20;;
20287;SDS011;10303;51.960;8.372;2022-08-04T06:16:47;1.10;;;1.08;;
20287;SDS011;10303;51.960;8.372;2022-08-04T06:19:15;2.35;;;1.83;;
20287;SDS011;10303;51.960;8.372;2022-08-04T06:21:46;4.50;;;1.42;;
20287;SDS011;10303;51.960;8.372;2022-08-04T06:24:15;1.80;;;1.35;;
20287;SDS011;10303;51.960;8.372;2022-08-04T06:26:44;5.05;;;1.77;;
20287;SDS011;10303;51.960;8.372;2022-08-04T06:29:14;1.95;;;1.30;;
20287;SDS011;10303;51.960;8.372;2022-08-04T06:31:50;3.17;;;1.27;;
20287;SDS011;10303;51.960;8.372;2022-08-04T06:34:22;1.48;;;1.38;;
20287;SDS011;10303;51.960;8.372;2022-08-04T06:36:53;1.60;;;1.50;;
20287;SDS011;10303;51.960;8.372;2022-08-04T06:39:21;1.30;;;1.20;;
20287;SDS011;10303;51.960;8.372;2022-08-04T06:41:52;1.40;;;1.23;;
20287;SDS011;10303;51.960;8.372;2022-08-04T06:44:19;1.70;;;1.30;;
20287;SDS011;10303;51.960;8.372;2022-08-04T06:46:47;1.83;;;1.13;;
20287;SDS011;10303;51.960;8.372;2022-08-04T06:49:13;1.77;;;1.40;;
20287;SDS011;10303;51.960;8.372;2022-08-04T06:51:42;2.17;;;1.48;;
20287;SDS011;10303;51.960;8.372;2022-08-04T06:54:09;1.60;;;1.50;;
20287;SDS011;10303;51.960;8.372;2022-08-04T06:56:36;1.60;;;1.50;;
20287;SDS011;10303;51.960;8.372;2022-08-04T06:59:06;1.52;;;1.40;;
20287;SDS011;10303;51.960;8.372;2022-08-04T07:01:36;2.40;;;1.80;;
20287;SDS011;10303;51.960;8.372;2022-08-04T07:04:04;1.35;;;1.30;;
20287;SDS011;10303;51.960;8.372;2022-08-04T07:06:30;1.80;;;1.70;;
20287;SDS011;10303;51.960;8.372;2022-08-04T07:08:57;2.45;;;1.80;;
20287;SDS011;10303;51.960;8.372;2022-08-04T07:11:25;2.40;;;1.92;;
20287;SDS011;10303;51.960;8.372;2022-08-04T07:13:52;1.83;;;1.73;;
20287;SDS011;10303;51.960;8.372;2022-08-04T07:16:20;3.30;;;2.17;;
20287;SDS011;10303;51.960;8.372;2022-08-04T07:18:47;1.83;;;1.73;;
20287;SDS011;10303;51.960;8.372;2022-08-04T07:21:18;1.92;;;1.58;;
20287;SDS011;10303;51.960;8.372;2022-08-04T07:23:47;1.52;;;1.42;;
20287;SDS011;10303;51.960;8.372;2022-08-04T07:26:15;1.70;;;1.60;;
20287;SDS011;10303;51.960;8.372;2022-08-04T07:28:43;2.30;;;2.08;;
20287;SDS011;10303;51.960;8.372;2022-08-04T07:31:13;1.50;;;1.40;;
20287;SDS011;10303;51.960;8.372;2022-08-04T07:33:42;3.35;;;1.60;;
20287;SDS011;10303;51.960;8.372;2022-08-04T07:36:09;1.70;;;1.60;;
20287;SDS011;10303;51.960;8.372;2022-08-04T07:38:35;2.55;;;1.73;;
20287;SDS011;10303;51.960;8.372;2022-08-04T07:41:02;2.00;;;1.90;;
20287;SDS011;10303;51.960;8.372;2022-08-04T07:43:30;1.60;;;1.50;;
20287;SDS011;10303;51.960;8.372;2022-08-04T07:45:56;1.38;;;1.38;;
20287;SDS011;10303;51.960;8.372;2022-08-04T07:48:23;1.60;;;1.50;;
20287;SDS011;10303;51.960;8.372;2022-08-04T07:50:49;1.75;;;1.60;;
20287;SDS011;10303;51.960;8.372;2022-08-04T07:53:15;2.60;;;2.08;;
20287;SDS011;10303;51.960;8.372;2022-08-04T07:55:44;2.85;;;1.83;;
20287;SDS011;10303;51.960;8.372;2022-08-04T07:58:11;2.35;;;2.13;;
20287;SDS011;10303;51.960;8.372;2022-08-04T08:00:37;2.10;;;2.00;;
20287;SDS011;10303;51.960;8.372;2022-08-04T08:03:04;3.65;;;2.40;;
20287;SDS011;10303;51.960;8.372;2022-08-04T08:05:32;1.95;;;1.85;;
20287;SDS011;10303;51.960;8.372;2022-08-04T08:07:58;2.58;;;2.17;;
20287;SDS011;10303;51.960;8.372;2022-08-04T08:10:24;2.05;;;1.95;;
20287;SDS011;10303;51.960;8.372;2022-08-04T08:12:50;4.15;;;1.77;;
20287;SDS011;10303;51.960;8.372;2022-08-04T08:15:18;1.75;;;1.60;;
20287;SDS011;10303;51.960;8.372;2022-08-04T08:17:45;2.22;;;1.90;;
20287;SDS011;10303;51.960;8.372;2022-08-04T08:20:11;1.80;;;1.70;;
20287;SDS011;10303;51.960;8.372;2022-08-04T08:22:37;4.38;;;2.65;;
20287;SDS011;10303;51.960;8.372;2022-08-04T08:25:06;1.95;;;1.85;;
20287;SDS011;10303;51.960;8.372;2022-08-04T08:27:33;1.70;;;1.60;;
20287;SDS011;10303;51.960;8.372;2022-08-04T08:30:01;1.60;;;1.50;;
20287;SDS011;10303;51.960;8.372;2022-08-04T08:32:27;2.47;;;1.67;;
20287;SDS011;10303;51.960;8.372;2022-08-04T08:34:54;1.80;;;1.70;;
20287;SDS011;10303;51.960;8.372;2022-08-04T08:51:51;1.80;;;1.70;;
20287;SDS011;10303;51.960;8.372;2022-08-04T08:54:46;2.92;;;1.70;;
20287;SDS011;10303;51.960;8.372;2022-08-04T08:57:54;2.10;;;1.80;;
20287;SDS011;10303;51.960;8.372;2022-08-04T09:13:22;3.70;;;2.08;;
20287;SDS011;10303;51.960;8.372;2022-08-04T09:16:18;2.05;;;1.95;;
20287;SDS011;10303;51.960;8.372;2022-08-04T09:19:03;4.75;;;1.88;;
20287;SDS011;10303;51.960;8.372;2022-08-04T09:22:00;3.85;;;2.10;;
20287;SDS011;10303;51.960;8.372;2022-08-04T09:25:33;1.92;;;1.58;;
20287;SDS011;10303;51.960;8.372;2022-08-04T09:27:54;2.55;;;1.77;;
20287;SDS011;10303;51.960;8.372;2022-08-04T09:30:51;1.90;;;1.73;;
20287;SDS011;10303;51.960;8.372;2022-08-04T09:33:41;2.05;;;1.75;;
20287;SDS011;10303;51.960;8.372;2022-08-04T09:36:27;4.28;;;1.83;;
20287;SDS011;10303;51.960;8.372;2022-08-04T09:39:23;2.38;;;2.17;;
20287;SDS011;10303;51.960;8.372;2022-08-04T09:45:06;1.58;;;1.48;;
20287;SDS011;10303;51.960;8.372;2022-08-04T09:55:39;3.13;;;1.70;;
20287;SDS011;10303;51.960;8.372;2022-08-04T10:01:35;2.25;;;2.15;;
20287;SDS011;10303;51.960;8.372;2022-08-04T10:04:03;2.40;;;1.77;;
20287;SDS011;10303;51.960;8.372;2022-08-04T10:21:00;1.52;;;1.42;;
20287;SDS011;10303;51.960;8.372;2022-08-04T10:26:48;3.70;;;1.50;;
20287;SDS011;10303;51.960;8.372;2022-08-04T10:29:44;3.53;;;1.50;;
20287;SDS011;10303;51.960;8.372;2022-08-04T10:35:09;1.40;;;1.30;;
20287;SDS011;10303;51.960;8.372;2022-08-04T10:40:50;1.85;;;1.38;;
20287;SDS011;10303;51.960;8.372;2022-08-04T10:43:45;1.77;;;1.20;;
20287;SDS011;10303;51.960;8.372;2022-08-04T10:46:26;1.45;;;1.35;;
20287;SDS011;10303;51.960;8.372;2022-08-04T10:58:00;3.20;;;1.88;;
20287;SDS011;10303;51.960;8.372;2022-08-04T11:00:30;1.83;;;1.73;;
20287;SDS011;10303;51.960;8.372;2022-08-04T11:05:46;1.65;;;1.55;;
20287;SDS011;10303;51.960;8.372;2022-08-04T11:08:26;1.48;;;1.30;;
20287;SDS011;10303;51.960;8.372;2022-08-04T11:11:21;1.35;;;1.35;;
20287;SDS011;10303;51.960;8.372;2022-08-04T11:22:14;1.40;;;1.30;;
20287;SDS011;10303;51.960;8.372;2022-08-04T11:30:34;1.20;;;1.10;;
20287;SDS011;10303;51.960;8.372;2022-08-04T11:33:24;2.45;;;1.20;;
20287;SDS011;10303;51.960;8.372;2022-08-04T11:42:00;1.88;;;1.40;;
20287;SDS011;10303;51.960;8.372;2022-08-04T11:44:48;3.30;;;1.67;;
20287;SDS011;10303;51.960;8.372;2022-08-04T11:50:06;1.33;;;1.23;;
20287;SDS011;10303;51.960;8.372;2022-08-04T11:52:44;1.40;;;1.20;;
20287;SDS011;10303;51.960;8.372;2022-08-04T11:55:12;1.00;;;1.00;;
20287;SDS011;10303;51.960;8.372;2022-08-04T11:57:42;1.88;;;1.00;;
20287;SDS011;10303;51.960;8.372;2022-08-04T12:00:10;1.10;;;1.10;;
20287;SDS011;10303;51.960;8.372;2022-08-04T12:05:24;1.63;;;1.50;;
20287;SDS011;10303;51.960;8.372;2022-08-04T12:14:42;1.20;;;1.10;;
20287;SDS011;10303;51.960;8.372;2022-08-04T12:17:48;1.10;;;1.10;;
20287;SDS011;10303;51.960;8.372;2022-08-04T12:20:42;0.90;;;0.90;;
20287;SDS011;10303;51.960;8.372;2022-08-04T12:23:16;1.40;;;1.30;;
20287;SDS011;10303;51.960;8.372;2022-08-04T12:25:55;2.88;;;1.10;;
20287;SDS011;10303;51.960;8.372;2022-08-04T12:28:32;3.42;;;1.00;;
20287;SDS011;10303;51.960;8.372;2022-08-04T12:31:15;2.13;;;1.00;;
20287;SDS011;10303;51.960;8.372;2022-08-04T12:33:53;0.90;;;0.90;;
20287;SDS011;10303;51.960;8.372;2022-08-04T12:36:30;4.85;;;1.50;;
20287;SDS011;10303;51.960;8.372;2022-08-04T12:39:09;1.10;;;1.00;;
20287;SDS011;10303;51.960;8.372;2022-08-04T12:44:22;1.25;;;1.15;;
20287;SDS011;10303;51.960;8.372;2022-08-04T12:46:57;1.27;;;1.27;;
20287;SDS011;10303;51.960;8.372;2022-08-04T12:49:27;0.80;;;0.80;;
20287;SDS011;10303;51.960;8.372;2022-08-04T12:51:58;1.27;;;1.17;;
20287;SDS011;10303;51.960;8.372;2022-08-04T12:54:25;1.20;;;1.20;;
20287;SDS011;10303;51.960;8.372;2022-08-04T12:56:56;2.28;;;1.10;;
20287;SDS011;10303;51.960;8.372;2022-08-04T12:59:25;0.88;;;0.88;;
20287;SDS011;10303;51.960;8.372;2022-08-04T13:01:51;3.88;;;1.10;;
20287;SDS011;10303;51.960;8.372;2022-08-04T13:04:22;1.00;;;0.90;;
20287;SDS011;10303;51.960;8.372;2022-08-04T13:06:59;1.10;;;0.90;;
20287;SDS011;10303;51.960;8.372;2022-08-04T13:09:33;0.95;;;0.95;;
20287;SDS011;10303;51.960;8.372;2022-08-04T13:12:03;1.02;;;1.02;;
20287;SDS011;10303;51.960;8.372;2022-08-04T13:14:39;5.30;;;1.30;;
20287;SDS011;10303;51.960;8.372;2022-08-04T13:17:10;1.20;;;1.20;;
20287;SDS011;10303;51.960;8.372;2022-08-04T13:19:36;1.60;;;1.33;;
20287;SDS011;10303;51.960;8.372;2022-08-04T13:22:04;5.38;;;2.10;;
20287;SDS011;10303;51.960;8.372;2022-08-04T13:24:31;2.00;;;1.90;;
20287;SDS011;10303;51.960;8.372;2022-08-04T13:27:06;2.75;;;1.58;;
20287;SDS011;10303;51.960;8.372;2022-08-04T13:29:39;2.38;;;2.10;;
20287;SDS011;10303;51.960;8.372;2022-08-04T13:32:09;2.10;;;1.90;;
20287;SDS011;10303;51.960;8.372;2022-08-04T13:34:41;4.45;;;1.90;;
20287;SDS011;10303;51.960;8.372;2022-08-04T13:37:08;2.03;;;1.77;;
20287;SDS011;10303;51.960;8.372;2022-08-04T13:39:35;1.55;;;1.45;;
20287;SDS011;10303;51.960;8.372;2022-08-04T13:42:08;5.13;;;1.50;;
20287;SDS011;10303;51.960;8.372;2022-08-04T13:44:38;3.75;;;1.85;;
20287;SDS011;10303;51.960;8.372;2022-08-04T13:47:14;3.10;;;2.15;;
20287;SDS011;10303;51.960;8.372;2022-08-04T13:52:44;2.15;;;1.40;;
20287;SDS011;10303;51.960;8.372;2022-08-04T13:55:21;1.25;;;1.17;;
20287;SDS011;10303;51.960;8.372;2022-08-04T13:57:54;3.28;;;1.67;;
20287;SDS011;10303;51.960;8.372;2022-08-04T14:00:42;3.60;;;1.27;;
20287;SDS011;10303;51.960;8.372;2022-08-04T14:06:04;2.58;;;1.27;;
20287;SDS011;10303;51.960;8.372;2022-08-04T14:08:52;2.10;;;1.40;;
20287;SDS011;10303;51.960;8.372;2022-08-04T14:11:36;6.75;;;1.38;;
20287;SDS011;10303;51.960;8.372;2022-08-04T14:14:15;5.13;;;1.50;;
20287;SDS011;10303;51.960;8.372;2022-08-04T14:19:51;2.28;;;1.50;;
20287;SDS011;10303;51.960;8.372;2022-08-04T14:24:56;4.90;;;1.60;;
20287;SDS011;10303;51.960;8.372;2022-08-04T14:27:49;1.63;;;1.52;;
20287;SDS011;10303;51.960;8.372;2022-08-04T14:30:29;4.30;;;1.92;;
20287;SDS011;10303;51.960;8.372;2022-08-04T14:33:03;2.40;;;1.63;;
20287;SDS011;10303;51.960;8.372;2022-08-04T14:35:32;4.00;;;1.52;;
20287;SDS011;10303;51.960;8.372;2022-08-04T14:38:03;4.38;;;1.88;;
20287;SDS011;10303;51.960;8.372;2022-08-04T14:40:33;2.75;;;1.55;;
20287;SDS011;10303;51.960;8.372;2022-08-04T14:43:04;3.58;;;1.83;;
20287;SDS011;10303;51.960;8.372;2022-08-04T14:45:32;4.05;;;2.00;;
20287;SDS011;10303;51.960;8.372;2022-08-04T14:48:06;4.25;;;1.70;;
20287;SDS011;10303;51.960;8.372;2022-08-04T14:50:43;2.92;;;1.83;;
20287;SDS011;10303;51.960;8.372;2022-08-04T14:53:15;3.97;;;1.77;;
20287;SDS011;10303;51.960;8.372;2022-08-04T14:55:46;4.85;;;2.22;;
20287;SDS011;10303;51.960;8.372;2022-08-04T14:58:18;3.97;;;2.00;;
20287;SDS011;10303;51.960;8.372;2022-08-04T15:00:54;4.15;;;1.80;;
20287;SDS011;10303;51.960;8.372;2022-08-04T15:03:23;7.07;;;2.42;;
20287;SDS011;10303;51.960;8.372;2022-08-04T15:05:51;6.30;;;2.22;;
20287;SDS011;10303;51.960;8.372;2022-08-04T15:08:21;3.35;;;2.10;;
20287;SDS011;10303;51.960;8.372;2022-08-04T15:10:48;7.00;;;2.20;;
20287;SDS011;10303;51.960;8.372;2022-08-04T15:13:14;2.10;;;1.83;;
20287;SDS011;10303;51.960;8.372;2022-08-04T15:15:41;3.70;;;2.10;;
20287;SDS011;10303;51.960;8.372;2022-08-04T15:18:08;7.85;;;1.80;;
20287;SDS011;10303;51.960;8.372;2022-08-04T15:20:35;3.03;;;1.40;;
20287;SDS011;10303;51.960;8.372;2022-08-04T15:23:03;1.77;;;1.67;;
20287;SDS011;10303;51.960;8.372;2022-08-04T15:25:32;2.85;;;1.58;;
20287;SDS011;10303;51.960;8.372;2022-08-04T15:28:17;2.97;;;1.80;;
20287;SDS011;10303;51.960;8.372;2022-08-04T15:30:47;3.50;;;1.77;;
20287;SDS011;10303;51.960;8.372;2022-08-04T15:33:16;3.70;;;1.90;;
20287;SDS011;10303;51.960;8.372;2022-08-04T15:35:48;2.28;;;2.10;;
20287;SDS011;10303;51.960;8.372;2022-08-04T15:38:26;1.95;;;1.85;;
20287;SDS011;10303;51.960;8.372;2022-08-04T15:49:25;5.28;;;2.05;;
20287;SDS011;10303;51.960;8.372;2022-08-04T15:52:02;3.58;;;1.95;;
20287;SDS011;10303;51.960;8.372;2022-08-04T15:54:35;3.60;;;1.70;;
20287;SDS011;10303;51.960;8.372;2022-08-04T15:57:03;2.80;;;1.70;;
20287;SDS011;10303;51.960;8.372;2022-08-04T16:13:08;4.65;;;1.90;;
20287;SDS011;10303;51.960;8.372;2022-08-04T16:15:40;2.47;;;1.98;;
20287;SDS011;10303;51.960;8.372;2022-08-04T16:18:20;1.50;;;1.40;;
20287;SDS011;10303;51.960;8.372;2022-08-04T16:20:56;1.98;;;1.77;;
20287;SDS011;10303;51.960;8.372;2022-08-04T16:34:59;5.57;;;1.17;;
20287;SDS011;10303;51.960;8.372;2022-08-04T16:43:09;8.13;;;1.40;;
20287;SDS011;10303;51.960;8.372;2022-08-04T16:45:41;6.97;;;1.55;;
20287;SDS011;10303;51.960;8.372;2022-08-04T16:48:12;1.40;;;1.30;;
20287;SDS011;10303;51.960;8.372;2022-08-04T16:50:44;3.03;;;1.20;;
20287;SDS011;10303;51.960;8.372;2022-08-04T16:53:32;2.58;;;1.15;;
20287;SDS011;10303;51.960;8.372;2022-08-04T16:56:03;1.88;;;1.50;;
20287;SDS011;10303;51.960;8.372;2022-08-04T16:58:32;4.70;;;1.58;;
20287;SDS011;10303;51.960;8.372;2022-08-04T17:01:18;4.45;;;1.40;;
20287;SDS011;10303;51.960;8.372;2022-08-04T17:03:51;3.17;;;1.30;;
20287;SDS011;10303;51.960;8.372;2022-08-04T17:06:17;1.23;;;1.17;;
20287;SDS011;10303;51.960;8.372;2022-08-04T17:08:43;3.67;;;1.60;;
20287;SDS011;10303;51.960;8.372;2022-08-04T17:11:12;3.72;;;1.92;;
20287;SDS011;10303;51.960;8.372;2022-08-04T17:13:41;1.58;;;1.48;;
20287;SDS011;10303;51.960;8.372;2022-08-04T17:16:12;1.77;;;1.27;;
20287;SDS011;10303;51.960;8.372;2022-08-04T17:18:46;3.28;;;1.55;;
20287;SDS011;10303;51.960;8.372;2022-08-04T17:23:57;1.27;;;1.10;;
20287;SDS011;10303;51.960;8.372;2022-08-04T17:26:35;4.10;;;1.42;;
20287;SDS011;10303;51.960;8.372;2022-08-04T17:29:03;2.65;;;1.73;;
20287;SDS011;10303;51.960;8.372;2022-08-04T17:31:31;2.67;;;1.33;;
20287;SDS011;10303;51.960;8.372;2022-08-04T17:34:00;6.80;;;1.60;;
20287;SDS011;10303;51.960;8.372;2022-08-04T17:36:33;1.85;;;1.30;;
20287;SDS011;10303;51.960;8.372;2022-08-04T17:39:03;1.83;;;1.20;;
20287;SDS011;10303;51.960;8.372;2022-08-04T17:41:41;9.27;;;2.05;;
20287;SDS011;10303;51.960;8.372;2022-08-04T17:44:07;5.43;;;1.40;;
20287;SDS011;10303;51.960;8.372;2022-08-04T17:46:37;1.40;;;1.30;;
20287;SDS011;10303;51.960;8.372;2022-08-04T17:51:50;3.35;;;1.48;;
20287;SDS011;10303;51.960;8.372;2022-08-04T17:56:59;2.22;;;1.10;;
20287;SDS011;10303;51.960;8.372;2022-08-04T17:59:45;1.20;;;1.10;;
20287;SDS011;10303;51.960;8.372;2022-08-04T18:02:23;3.50;;;1.40;;
20287;SDS011;10303;51.960;8.372;2022-08-04T18:04:55;1.33;;;1.23;;
20287;SDS011;10303;51.960;8.372;2022-08-04T18:07:21;1.65;;;1.45;;
20287;SDS011;10303;51.960;8.372;2022-08-04T18:09:58;2.10;;;1.40;;
20287;SDS011;10303;51.960;8.372;2022-08-04T18:12:26;2.65;;;1.30;;
20287;SDS011;10303;51.960;8.372;2022-08-04T18:14:58;2.88;;;0.80;;
20287;SDS011;10303;51.960;8.372;2022-08-04T18:17:31;1.42;;;1.20;;
20287;SDS011;10303;51.960;8.372;2022-08-04T18:20:06;1.20;;;1.10;;
20287;SDS011;10303;51.960;8.372;2022-08-04T18:22:40;2.20;;;1.42;;
20287;SDS011;10303;51.960;8.372;2022-08-04T18:25:08;1.10;;;0.95;;
20287;SDS011;10303;51.960;8.372;2022-08-04T18:27:45;1.30;;;1.20;;
20287;SDS011;10303;51.960;8.372;2022-08-04T18:30:17;2.05;;;1.13;;
20287;SDS011;10303;51.960;8.372;2022-08-04T18:32:43;1.90;;;1.15;;
20287;SDS011;10303;51.960;8.372;2022-08-04T18:35:09;0.98;;;0.80;;
20287;SDS011;10303;51.960;8.372;2022-08-04T18:37:35;1.20;;;1.20;;
20287;SDS011;10303;51.960;8.372;2022-08-04T18:40:03;1.10;;;1.10;;
20287;SDS011;10303;51.960;8.372;2022-08-04T18:42:31;1.00;;;1.00;;
20287;SDS011;10303;51.960;8.372;2022-08-04T18:44:57;8.57;;;1.13;;
20287;SDS011;10303;51.960;8.372;2022-08-04T18:47:23;3.42;;;1.17;;
20287;SDS011;10303;51.960;8.372;2022-08-04T18:49:53;1.02;;;0.93;;
20287;SDS011;10303;51.960;8.372;2022-08-04T18:52:19;0.80;;;0.80;;
20287;SDS011;10303;51.960;8.372;2022-08-04T18:54:46;1.65;;;1.10;;
20287;SDS011;10303;51.960;8.372;2022-08-04T18:57:19;1.00;;;1.00;;
20287;SDS011;10303;51.960;8.372;2022-08-04T18:59:52;23.23;;;1.67;;
20287;SDS011;10303;51.960;8.372;2022-08-04T19:02:19;3.13;;;1.15;;
20287;SDS011;10303;51.960;8.372;2022-08-04T19:04:46;2.30;;;0.90;;
20287;SDS011;10303;51.960;8.372;2022-08-04T19:07:13;2.00;;;0.90;;
20287;SDS011;10303;51.960;8.372;2022-08-04T19:09:40;1.05;;;1.02;;
20287;SDS011;10303;51.960;8.372;2022-08-04T19:12:08;1.40;;;0.98;;
20287;SDS011;10303;51.960;8.372;2022-08-04T19:14:35;0.80;;;0.80;;
20287;SDS011;10303;51.960;8.372;2022-08-04T19:17:01;1.33;;;1.00;;
20287;SDS011;10303;51.960;8.372;2022-08-04T19:19:28;0.82;;;0.73;;
20287;SDS011;10303;51.960;8.372;2022-08-04T19:21:54;0.90;;;0.90;;
20287;SDS011;10303;51.960;8.372;2022-08-04T19:24:21;1.10;;;1.08;;
20287;SDS011;10303;51.960;8.372;2022-08-04T19:26:48;1.83;;;1.10;;
20287;SDS011;10303;51.960;8.372;2022-08-04T19:29:14;4.30;;;1.20;;
20287;SDS011;10303;51.960;8.372;2022-08-04T19:31:40;1.25;;;1.15;;
20287;SDS011;10303;51.960;8.372;2022-08-04T19:34:06;1.35;;;1.17;;
20287;SDS011;10303;51.960;8.372;2022-08-04T19:36:33;1.20;;;1.10;;
20287;SDS011;10303;51.960;8.372;2022-08-04T19:39:03;3.45;;;1.23;;
20287;SDS011;10303;51.960;8.372;2022-08-04T19:41:33;2.08;;;1.70;;
20287;SDS011;10303;51.960;8.372;2022-08-04T19:44:01;2.63;;;0.90;;
20287;SDS011;10303;51.960;8.372;2022-08-04T19:46:29;1.33;;;0.85;;
20287;SDS011;10303;51.960;8.372;2022-08-04T19:48:56;1.20;;;1.10;;
20287;SDS011;10303;51.960;8.372;2022-08-04T19:51:22;1.30;;;1.30;;
20287;SDS011;10303;51.960;8.372;2022-08-04T19:53:49;1.70;;;1.35;;
20287;SDS011;10303;51.960;8.372;2022-08-04T19:56:15;1.10;;;1.00;;
20287;SDS011;10303;51.960;8.372;2022-08-04T19:58:41;1.67;;;1.42;;
20287;SDS011;10303;51.960;8.372;2022-08-04T20:01:08;1.55;;;1.00;;
20287;SDS011;10303;51.960;8.372;2022-08-04T20:03:36;1.42;;;1.08;;
20287;SDS011;10303;51.960;8.372;2022-08-04T20:06:02;1.40;;;1.00;;
20287;SDS011;10303;51.960;8.372;2022-08-04T20:08:28;1.70;;;1.30;;
20287;SDS011;10303;51.960;8.372;2022-08-04T20:10:55;2.28;;;1.42;;
20287;SDS011;10303;51.960;8.372;2022-08-04T20:13:22;1.27;;;1.17;;
20287;SDS011;10303;51.960;8.372;2022-08-04T20:15:49;15.52;;;1.67;;
20287;SDS011;10303;51.960;8.372;2022-08-04T20:18:17;1.67;;;1.15;;
20287;SDS011;10303;51.960;8.372;2022-08-04T20:20:43;1.40;;;1.30;;
20287;SDS011;10303;51.960;8.372;2022-08-04T20:23:09;2.72;;;1.48;;
20287;SDS011;10303;51.960;8.372;2022-08-04T20:25:37;4.00;;;1.33;;
20287;SDS011;10303;51.960;8.372;2022-08-04T20:28:03;3.00;;;1.77;;
20287;SDS011;10303;51.960;8.372;2022-08-04T20:30:30;1.80;;;0.93;;
20287;SDS011;10303;51.960;8.372;2022-08-04T20:32:59;2.25;;;1.33;;